sensor_id;sensor_type;location;lat;lon;timestamp;temperature;humidity
9118;DHT22;4594;50.994;7.126;2024-02-14T00:00:30;11.40;56.50
9118;DHT22;4594;50.994;7.126;2024-02-14T00:02:56;11.40;56.50
9118;DHT22;4594;50.994;7.126;2024-02-14T00:05:21;11.40;56.40
9118;DHT22;4594;50.994;7.126;2024-02-14T00:07:48;11.40;56.50
9118;DHT22;4594;50.994;7.126;2024-02-14T00:10:13;11.80;56.70
9118;DHT22;4594;50.994;7.126;2024-02-14T00:12:39;11.40;56.30
9118;DHT22;4594;50.994;7.126;2024-02-14T00:15:05;11.50;56.40
9118;DHT22;4594;50.994;7.126;2024-02-14T00:17:33;11.40;56.30
9118;DHT22;4594;50.994;7.126;2024-02-14T00:20:00;11.50;56.50
9118;DHT22;4594;50.994;7.126;2024-02-14T00:22:28;11.40;56.30
9118;DHT22;4594;50.994;7.126;2024-02-14T00:24:54;11.40;56.30
9118;DHT22;4594;50.994;7.126;2024-02-14T00:27:19;11.50;56.50
9118;DHT22;4594;50.994;7.126;2024-02-14T00:29:45;11.40;56.70
9118;DHT22;4594;50.994;7.126;2024-02-14T00:32:12;11.40;56.40
9118;DHT22;4594;50.994;7.126;2024-02-14T00:34:40;11.40;56.30
9118;DHT22;4594;50.994;7.126;2024-02-14T00:37:05;11.50;56.20
9118;DHT22;4594;50.994;7.126;2024-02-14T00:39:31;11.60;56.60
9118;DHT22;4594;50.994;7.126;2024-02-14T00:41:57;11.50;56.30
9118;DHT22;4594;50.994;7.126;2024-02-14T00:44:22;11.50;56.40
9118;DHT22;4594;50.994;7.126;2024-02-14T00:46:48;11.50;56.30
9118;DHT22;4594;50.994;7.126;2024-02-14T00:49:14;11.50;56.30
9118;DHT22;4594;50.994;7.126;2024-02-14T00:51:40;11.50;56.30
9118;DHT22;4594;50.994;7.126;2024-02-14T00:54:06;11.50;56.30
9118;DHT22;4594;50.994;7.126;2024-02-14T00:56:33;11.50;56.30
9118;DHT22;4594;50.994;7.126;2024-02-14T00:59:00;11.50;56.30
9118;DHT22;4594;50.994;7.126;2024-02-14T01:01:26;11.50;56.30
9118;DHT22;4594;50.994;7.126;2024-02-14T01:03:52;11.50;56.40
9118;DHT22;4594;50.994;7.126;2024-02-14T01:06:17;11.40;56.30
9118;DHT22;4594;50.994;7.126;2024-02-14T01:08:44;11.40;56.20
9118;DHT22;4594;50.994;7.126;2024-02-14T01:11:10;11.40;56.20
9118;DHT22;4594;50.994;7.126;2024-02-14T01:13:35;11.50;56.30
9118;DHT22;4594;50.994;7.126;2024-02-14T01:16:03;11.40;56.20
9118;DHT22;4594;50.994;7.126;2024-02-14T01:18:30;11.40;56.00
9118;DHT22;4594;50.994;7.126;2024-02-14T01:20:56;11.40;56.30
9118;DHT22;4594;50.994;7.126;2024-02-14T01:23:24;11.40;56.40
9118;DHT22;4594;50.994;7.126;2024-02-14T01:25:50;11.40;56.50
9118;DHT22;4594;50.994;7.126;2024-02-14T01:28:16;11.30;56.50
9118;DHT22;4594;50.994;7.126;2024-02-14T01:30:43;11.30;56.50
9118;DHT22;4594;50.994;7.126;2024-02-14T01:33:08;11.30;56.60
9118;DHT22;4594;50.994;7.126;2024-02-14T01:35:34;11.30;56.70
9118;DHT22;4594;50.994;7.126;2024-02-14T01:38:00;11.30;56.80
9118;DHT22;4594;50.994;7.126;2024-02-14T01:40:28;11.40;56.90
9118;DHT22;4594;50.994;7.126;2024-02-14T01:42:54;11.50;57.10
9118;DHT22;4594;50.994;7.126;2024-02-14T01:45:21;11.40;57.00
9118;DHT22;4594;50.994;7.126;2024-02-14T01:47:48;11.40;57.20
9118;DHT22;4594;50.994;7.126;2024-02-14T01:50:15;11.40;57.10
9118;DHT22;4594;50.994;7.126;2024-02-14T01:52:41;11.40;57.20
9118;DHT22;4594;50.994;7.126;2024-02-14T01:55:10;11.40;57.20
9118;DHT22;4594;50.994;7.126;2024-02-14T01:57:39;11.40;57.10
9118;DHT22;4594;50.994;7.126;2024-02-14T02:00:06;11.40;57.20
9118;DHT22;4594;50.994;7.126;2024-02-14T02:02:35;11.40;57.20
9118;DHT22;4594;50.994;7.126;2024-02-14T02:05:03;11.50;57.50
9118;DHT22;4594;50.994;7.126;2024-02-14T02:07:29;11.50;57.30
9118;DHT22;4594;50.994;7.126;2024-02-14T02:09:56;11.50;57.30
9118;DHT22;4594;50.994;7.126;2024-02-14T02:12:22;11.50;57.30
9118;DHT22;4594;50.994;7.126;2024-02-14T02:14:53;11.60;57.40
9118;DHT22;4594;50.994;7.126;2024-02-14T02:17:19;11.50;57.40
9118;DHT22;4594;50.994;7.126;2024-02-14T02:19:46;11.70;57.60
9118;DHT22;4594;50.994;7.126;2024-02-14T02:22:12;11.60;57.60
9118;DHT22;4594;50.994;7.126;2024-02-14T02:24:37;11.60;57.60
9118;DHT22;4594;50.994;7.126;2024-02-14T02:27:03;11.60;57.60
9118;DHT22;4594;50.994;7.126;2024-02-14T02:29:29;11.60;57.60
9118;DHT22;4594;50.994;7.126;2024-02-14T02:31:57;11.60;57.60
9118;DHT22;4594;50.994;7.126;2024-02-14T02:34:23;11.60;57.70
9118;DHT22;4594;50.994;7.126;2024-02-14T02:36:49;11.70;57.70
9118;DHT22;4594;50.994;7.126;2024-02-14T02:39:16;11.70;57.70
9118;DHT22;4594;50.994;7.126;2024-02-14T02:41:42;11.70;57.70
9118;DHT22;4594;50.994;7.126;2024-02-14T02:44:08;11.70;57.70
9118;DHT22;4594;50.994;7.126;2024-02-14T02:46:33;11.70;57.70
9118;DHT22;4594;50.994;7.126;2024-02-14T02:48:59;11.80;57.80
9118;DHT22;4594;50.994;7.126;2024-02-14T02:51:25;11.80;58.10
9118;DHT22;4594;50.994;7.126;2024-02-14T02:53:51;11.80;57.80
9118;DHT22;4594;50.994;7.126;2024-02-14T02:56:19;11.80;57.80
9118;DHT22;4594;50.994;7.126;2024-02-14T02:58:46;11.80;57.80
9118;DHT22;4594;50.994;7.126;2024-02-14T03:01:13;11.80;57.80
9118;DHT22;4594;50.994;7.126;2024-02-14T03:03:40;11.80;57.80
9118;DHT22;4594;50.994;7.126;2024-02-14T03:06:06;11.80;57.80
9118;DHT22;4594;50.994;7.126;2024-02-14T03:08:33;11.80;57.90
9118;DHT22;4594;50.994;7.126;2024-02-14T03:11:06;11.80;57.90
9118;DHT22;4594;50.994;7.126;2024-02-14T03:13:32;11.90;57.50
9118;DHT22;4594;50.994;7.126;2024-02-14T03:15:58;11.90;58.00
9118;DHT22;4594;50.994;7.126;2024-02-14T03:18:24;11.80;57.90
9118;DHT22;4594;50.994;7.126;2024-02-14T03:20:50;11.90;58.00
9118;DHT22;4594;50.994;7.126;2024-02-14T03:23:16;11.90;58.00
9118;DHT22;4594;50.994;7.126;2024-02-14T03:25:42;11.90;58.00
9118;DHT22;4594;50.994;7.126;2024-02-14T03:28:08;11.90;58.00
9118;DHT22;4594;50.994;7.126;2024-02-14T03:30:35;11.90;58.00
9118;DHT22;4594;50.994;7.126;2024-02-14T03:33:02;11.90;58.00
9118;DHT22;4594;50.994;7.126;2024-02-14T03:35:28;11.90;57.90
9118;DHT22;4594;50.994;7.126;2024-02-14T03:37:54;11.90;58.00
9118;DHT22;4594;50.994;7.126;2024-02-14T03:40:19;11.90;57.90
9118;DHT22;4594;50.994;7.126;2024-02-14T03:42:48;11.90;57.90
9118;DHT22;4594;50.994;7.126;2024-02-14T03:45:14;12.00;58.00
9118;DHT22;4594;50.994;7.126;2024-02-14T03:47:40;12.00;58.10
9118;DHT22;4594;50.994;7.126;2024-02-14T03:50:07;11.90;58.00
9118;DHT22;4594;50.994;7.126;2024-02-14T03:52:34;12.00;58.00
9118;DHT22;4594;50.994;7.126;2024-02-14T03:55:00;12.00;58.10
9118;DHT22;4594;50.994;7.126;2024-02-14T03:57:26;12.00;58.10
9118;DHT22;4594;50.994;7.126;2024-02-14T03:59:56;12.00;58.20
9118;DHT22;4594;50.994;7.126;2024-02-14T04:02:24;12.00;58.20
9118;DHT22;4594;50.994;7.126;2024-02-14T04:04:51;12.00;58.30
9118;DHT22;4594;50.994;7.126;2024-02-14T04:07:17;12.00;58.40
9118;DHT22;4594;50.994;7.126;2024-02-14T04:09:43;12.00;58.40
9118;DHT22;4594;50.994;7.126;2024-02-14T04:12:09;12.10;58.50
9118;DHT22;4594;50.994;7.126;2024-02-14T04:14:36;12.00;58.50
9118;DHT22;4594;50.994;7.126;2024-02-14T04:17:04;12.00;58.50
9118;DHT22;4594;50.994;7.126;2024-02-14T04:19:30;12.00;58.60
9118;DHT22;4594;50.994;7.126;2024-02-14T04:21:55;12.00;58.60
9118;DHT22;4594;50.994;7.126;2024-02-14T04:24:21;12.10;58.70
9118;DHT22;4594;50.994;7.126;2024-02-14T04:26:46;12.10;58.70
9118;DHT22;4594;50.994;7.126;2024-02-14T04:29:14;12.10;58.70
9118;DHT22;4594;50.994;7.126;2024-02-14T04:31:40;12.10;58.80
9118;DHT22;4594;50.994;7.126;2024-02-14T04:34:08;12.10;58.70
9118;DHT22;4594;50.994;7.126;2024-02-14T04:36:35;12.10;58.80
9118;DHT22;4594;50.994;7.126;2024-02-14T04:39:01;12.10;58.70
9118;DHT22;4594;50.994;7.126;2024-02-14T04:41:27;12.10;58.80
9118;DHT22;4594;50.994;7.126;2024-02-14T04:43:52;12.10;58.80
9118;DHT22;4594;50.994;7.126;2024-02-14T04:46:18;12.10;58.80
9118;DHT22;4594;50.994;7.126;2024-02-14T04:48:44;12.10;58.80
9118;DHT22;4594;50.994;7.126;2024-02-14T04:51:09;12.20;58.80
9118;DHT22;4594;50.994;7.126;2024-02-14T04:53:35;12.20;58.90
9118;DHT22;4594;50.994;7.126;2024-02-14T04:56:01;12.20;58.90
9118;DHT22;4594;50.994;7.126;2024-02-14T04:58:26;12.20;58.90
9118;DHT22;4594;50.994;7.126;2024-02-14T05:00:52;12.20;58.90
9118;DHT22;4594;50.994;7.126;2024-02-14T05:03:20;12.20;58.80
9118;DHT22;4594;50.994;7.126;2024-02-14T05:05:46;12.20;58.70
9118;DHT22;4594;50.994;7.126;2024-02-14T05:08:12;12.20;58.70
9118;DHT22;4594;50.994;7.126;2024-02-14T05:10:37;12.30;58.70
9118;DHT22;4594;50.994;7.126;2024-02-14T05:13:03;12.20;58.80
9118;DHT22;4594;50.994;7.126;2024-02-14T05:15:30;12.20;58.80
9118;DHT22;4594;50.994;7.126;2024-02-14T05:17:56;12.20;58.90
9118;DHT22;4594;50.994;7.126;2024-02-14T05:20:21;12.20;58.80
9118;DHT22;4594;50.994;7.126;2024-02-14T05:22:47;12.20;58.80
9118;DHT22;4594;50.994;7.126;2024-02-14T05:25:13;12.20;58.80
9118;DHT22;4594;50.994;7.126;2024-02-14T05:27:39;12.20;58.80
9118;DHT22;4594;50.994;7.126;2024-02-14T05:30:05;12.20;58.80
9118;DHT22;4594;50.994;7.126;2024-02-14T05:32:34;12.20;58.70
9118;DHT22;4594;50.994;7.126;2024-02-14T05:35:00;12.30;58.30
9118;DHT22;4594;50.994;7.126;2024-02-14T05:37:27;12.20;58.90
9118;DHT22;4594;50.994;7.126;2024-02-14T05:39:55;12.30;59.00
9118;DHT22;4594;50.994;7.126;2024-02-14T05:42:21;12.30;59.00
9118;DHT22;4594;50.994;7.126;2024-02-14T05:44:47;12.30;59.00
9118;DHT22;4594;50.994;7.126;2024-02-14T05:47:14;12.30;59.00
9118;DHT22;4594;50.994;7.126;2024-02-14T05:49:40;12.30;59.00
9118;DHT22;4594;50.994;7.126;2024-02-14T05:52:09;12.30;58.90
9118;DHT22;4594;50.994;7.126;2024-02-14T05:54:35;12.30;58.50
9118;DHT22;4594;50.994;7.126;2024-02-14T05:57:01;12.30;58.90
9118;DHT22;4594;50.994;7.126;2024-02-14T05:59:27;12.30;58.90
9118;DHT22;4594;50.994;7.126;2024-02-14T06:01:53;12.30;58.90
9118;DHT22;4594;50.994;7.126;2024-02-14T06:04:19;12.30;59.00
9118;DHT22;4594;50.994;7.126;2024-02-14T06:06:45;12.30;59.20
9118;DHT22;4594;50.994;7.126;2024-02-14T06:09:10;12.30;59.30
9118;DHT22;4594;50.994;7.126;2024-02-14T06:11:37;12.30;59.40
9118;DHT22;4594;50.994;7.126;2024-02-14T06:14:08;12.30;59.50
9118;DHT22;4594;50.994;7.126;2024-02-14T06:16:34;12.30;59.60
9118;DHT22;4594;50.994;7.126;2024-02-14T06:19:01;12.30;59.70
9118;DHT22;4594;50.994;7.126;2024-02-14T06:21:29;12.30;59.80
9118;DHT22;4594;50.994;7.126;2024-02-14T06:23:55;12.40;59.90
9118;DHT22;4594;50.994;7.126;2024-02-14T06:26:24;12.40;60.00
9118;DHT22;4594;50.994;7.126;2024-02-14T06:28:49;12.40;59.90
9118;DHT22;4594;50.994;7.126;2024-02-14T06:31:20;12.40;59.90
9118;DHT22;4594;50.994;7.126;2024-02-14T06:33:46;12.40;60.00
9118;DHT22;4594;50.994;7.126;2024-02-14T06:36:12;12.40;60.10
9118;DHT22;4594;50.994;7.126;2024-02-14T06:38:38;12.40;60.20
9118;DHT22;4594;50.994;7.126;2024-02-14T06:41:05;12.40;60.20
9118;DHT22;4594;50.994;7.126;2024-02-14T06:43:31;12.40;60.20
9118;DHT22;4594;50.994;7.126;2024-02-14T06:45:57;12.40;60.50
9118;DHT22;4594;50.994;7.126;2024-02-14T06:48:23;12.40;60.50
9118;DHT22;4594;50.994;7.126;2024-02-14T06:50:50;12.40;60.60
9118;DHT22;4594;50.994;7.126;2024-02-14T06:53:17;12.40;60.70
9118;DHT22;4594;50.994;7.126;2024-02-14T06:55:42;12.40;60.60
9118;DHT22;4594;50.994;7.126;2024-02-14T06:58:08;12.40;60.70
9118;DHT22;4594;50.994;7.126;2024-02-14T07:00:34;12.40;60.80
9118;DHT22;4594;50.994;7.126;2024-02-14T07:03:00;12.40;60.80
9118;DHT22;4594;50.994;7.126;2024-02-14T07:05:26;12.50;61.00
9118;DHT22;4594;50.994;7.126;2024-02-14T07:07:54;12.40;60.60
9118;DHT22;4594;50.994;7.126;2024-02-14T07:10:20;12.50;60.70
9118;DHT22;4594;50.994;7.126;2024-02-14T07:12:46;12.50;60.70
9118;DHT22;4594;50.994;7.126;2024-02-14T07:15:12;12.50;60.80
9118;DHT22;4594;50.994;7.126;2024-02-14T07:17:38;12.50;60.70
9118;DHT22;4594;50.994;7.126;2024-02-14T07:20:05;12.50;60.80
9118;DHT22;4594;50.994;7.126;2024-02-14T07:22:34;12.60;60.90
9118;DHT22;4594;50.994;7.126;2024-02-14T07:25:01;12.60;61.00
9118;DHT22;4594;50.994;7.126;2024-02-14T07:27:30;12.60;61.00
9118;DHT22;4594;50.994;7.126;2024-02-14T07:29:56;12.60;61.00
9118;DHT22;4594;50.994;7.126;2024-02-14T07:32:21;12.60;61.00
9118;DHT22;4594;50.994;7.126;2024-02-14T07:34:47;12.60;61.10
9118;DHT22;4594;50.994;7.126;2024-02-14T07:37:13;12.70;61.20
9118;DHT22;4594;50.994;7.126;2024-02-14T07:39:43;12.60;61.10
9118;DHT22;4594;50.994;7.126;2024-02-14T07:42:09;13.70;62.40
9118;DHT22;4594;50.994;7.126;2024-02-14T07:44:35;12.80;61.50
9118;DHT22;4594;50.994;7.126;2024-02-14T07:47:01;13.00;61.80
9118;DHT22;4594;50.994;7.126;2024-02-14T07:49:27;12.80;61.50
9118;DHT22;4594;50.994;7.126;2024-02-14T07:51:53;12.80;61.50
9118;DHT22;4594;50.994;7.126;2024-02-14T07:54:18;12.90;61.70
9118;DHT22;4594;50.994;7.126;2024-02-14T07:56:44;12.90;61.70
9118;DHT22;4594;50.994;7.126;2024-02-14T07:59:10;12.90;61.60
9118;DHT22;4594;50.994;7.126;2024-02-14T08:01:37;12.90;61.50
9118;DHT22;4594;50.994;7.126;2024-02-14T08:04:02;12.90;61.50
9118;DHT22;4594;50.994;7.126;2024-02-14T08:06:29;13.00;61.70
9118;DHT22;4594;50.994;7.126;2024-02-14T08:08:55;13.10;61.90
9118;DHT22;4594;50.994;7.126;2024-02-14T08:11:24;13.00;61.90
9118;DHT22;4594;50.994;7.126;2024-02-14T08:13:50;13.10;61.90
9118;DHT22;4594;50.994;7.126;2024-02-14T08:16:16;13.10;61.70
9118;DHT22;4594;50.994;7.126;2024-02-14T08:18:42;13.10;61.50
9118;DHT22;4594;50.994;7.126;2024-02-14T08:21:09;13.10;61.60
9118;DHT22;4594;50.994;7.126;2024-02-14T08:23:36;13.20;61.70
9118;DHT22;4594;50.994;7.126;2024-02-14T08:26:04;13.20;61.60
9118;DHT22;4594;50.994;7.126;2024-02-14T08:28:36;13.20;61.90
9118;DHT22;4594;50.994;7.126;2024-02-14T08:31:02;13.20;62.00
9118;DHT22;4594;50.994;7.126;2024-02-14T08:33:28;13.30;62.00
9118;DHT22;4594;50.994;7.126;2024-02-14T08:35:54;13.30;62.00
9118;DHT22;4594;50.994;7.126;2024-02-14T08:38:22;13.40;62.10
9118;DHT22;4594;50.994;7.126;2024-02-14T08:40:48;13.40;61.90
9118;DHT22;4594;50.994;7.126;2024-02-14T08:43:14;13.40;61.90
9118;DHT22;4594;50.994;7.126;2024-02-14T08:45:40;13.40;61.80
9118;DHT22;4594;50.994;7.126;2024-02-14T08:48:06;13.50;62.00
9118;DHT22;4594;50.994;7.126;2024-02-14T08:50:32;13.50;61.80
9118;DHT22;4594;50.994;7.126;2024-02-14T08:52:58;13.60;62.10
9118;DHT22;4594;50.994;7.126;2024-02-14T08:55:23;13.60;61.90
9118;DHT22;4594;50.994;7.126;2024-02-14T08:57:49;13.60;61.90
9118;DHT22;4594;50.994;7.126;2024-02-14T09:00:15;13.70;62.10
9118;DHT22;4594;50.994;7.126;2024-02-14T09:02:45;13.70;62.10
9118;DHT22;4594;50.994;7.126;2024-02-14T09:05:14;13.70;62.00
9118;DHT22;4594;50.994;7.126;2024-02-14T09:07:42;13.80;62.10
9118;DHT22;4594;50.994;7.126;2024-02-14T09:10:09;13.80;62.20
9118;DHT22;4594;50.994;7.126;2024-02-14T09:12:38;13.80;62.30
9118;DHT22;4594;50.994;7.126;2024-02-14T09:15:06;13.90;62.30
9118;DHT22;4594;50.994;7.126;2024-02-14T09:17:33;13.90;62.20
9118;DHT22;4594;50.994;7.126;2024-02-14T09:19:58;14.00;62.40
9118;DHT22;4594;50.994;7.126;2024-02-14T09:22:24;14.00;62.50
9118;DHT22;4594;50.994;7.126;2024-02-14T09:24:50;14.00;62.30
9118;DHT22;4594;50.994;7.126;2024-02-14T09:27:16;14.10;62.50
9118;DHT22;4594;50.994;7.126;2024-02-14T09:29:42;14.20;62.90
9118;DHT22;4594;50.994;7.126;2024-02-14T09:32:08;14.30;63.30
9118;DHT22;4594;50.994;7.126;2024-02-14T09:34:34;14.30;64.20
9118;DHT22;4594;50.994;7.126;2024-02-14T09:37:00;14.40;64.80
9118;DHT22;4594;50.994;7.126;2024-02-14T09:39:25;14.50;64.90
9118;DHT22;4594;50.994;7.126;2024-02-14T09:41:54;14.70;64.90
9118;DHT22;4594;50.994;7.126;2024-02-14T09:44:27;14.80;64.00
9118;DHT22;4594;50.994;7.126;2024-02-14T09:46:54;14.90;64.60
9118;DHT22;4594;50.994;7.126;2024-02-14T09:49:21;15.00;64.30
9118;DHT22;4594;50.994;7.126;2024-02-14T09:51:48;15.10;64.20
9118;DHT22;4594;50.994;7.126;2024-02-14T09:54:16;15.10;64.30
9118;DHT22;4594;50.994;7.126;2024-02-14T09:56:52;15.20;63.90
9118;DHT22;4594;50.994;7.126;2024-02-14T09:59:22;15.30;63.80
9118;DHT22;4594;50.994;7.126;2024-02-14T10:01:49;15.30;62.70
9118;DHT22;4594;50.994;7.126;2024-02-14T10:04:16;15.40;63.70
9118;DHT22;4594;50.994;7.126;2024-02-14T10:06:44;15.50;63.40
9118;DHT22;4594;50.994;7.126;2024-02-14T10:09:10;15.50;63.30
9118;DHT22;4594;50.994;7.126;2024-02-14T10:11:37;15.50;63.00
9118;DHT22;4594;50.994;7.126;2024-02-14T10:14:04;15.50;62.40
9118;DHT22;4594;50.994;7.126;2024-02-14T10:16:35;15.60;62.00
9118;DHT22;4594;50.994;7.126;2024-02-14T10:19:01;15.60;62.50
9118;DHT22;4594;50.994;7.126;2024-02-14T10:21:30;15.60;62.50
9118;DHT22;4594;50.994;7.126;2024-02-14T10:24:01;15.60;62.10
9118;DHT22;4594;50.994;7.126;2024-02-14T10:26:28;15.70;61.40
9118;DHT22;4594;50.994;7.126;2024-02-14T10:28:56;15.70;62.20
9118;DHT22;4594;50.994;7.126;2024-02-14T10:31:26;15.70;61.80
9118;DHT22;4594;50.994;7.126;2024-02-14T10:33:55;15.80;60.80
9118;DHT22;4594;50.994;7.126;2024-02-14T10:36:24;15.80;60.50
9118;DHT22;4594;50.994;7.126;2024-02-14T10:38:50;15.90;61.80
9118;DHT22;4594;50.994;7.126;2024-02-14T10:41:17;15.80;61.80
9118;DHT22;4594;50.994;7.126;2024-02-14T10:43:43;15.90;61.90
9118;DHT22;4594;50.994;7.126;2024-02-14T10:46:20;15.90;62.00
9118;DHT22;4594;50.994;7.126;2024-02-14T10:48:53;15.90;59.90
9118;DHT22;4594;50.994;7.126;2024-02-14T10:51:31;16.10;61.70
9118;DHT22;4594;50.994;7.126;2024-02-14T10:53:59;15.90;60.80
9118;DHT22;4594;50.994;7.126;2024-02-14T10:56:29;15.90;62.00
9118;DHT22;4594;50.994;7.126;2024-02-14T10:58:57;15.90;62.00
9118;DHT22;4594;50.994;7.126;2024-02-14T11:01:29;15.90;62.00
9118;DHT22;4594;50.994;7.126;2024-02-14T11:03:59;16.00;61.20
9118;DHT22;4594;50.994;7.126;2024-02-14T11:06:26;16.00;62.20
9118;DHT22;4594;50.994;7.126;2024-02-14T11:09:11;16.00;62.90
9118;DHT22;4594;50.994;7.126;2024-02-14T11:11:43;16.10;59.70
9118;DHT22;4594;50.994;7.126;2024-02-14T11:14:10;16.10;63.80
9118;DHT22;4594;50.994;7.126;2024-02-14T11:16:38;16.20;63.90
9118;DHT22;4594;50.994;7.126;2024-02-14T11:19:07;16.30;63.50
9118;DHT22;4594;50.994;7.126;2024-02-14T11:21:40;16.30;61.40
9118;DHT22;4594;50.994;7.126;2024-02-14T11:24:10;16.30;60.90
9118;DHT22;4594;50.994;7.126;2024-02-14T11:26:48;16.40;63.10
9118;DHT22;4594;50.994;7.126;2024-02-14T11:29:17;16.40;62.30
9118;DHT22;4594;50.994;7.126;2024-02-14T11:31:47;16.40;62.40
9118;DHT22;4594;50.994;7.126;2024-02-14T11:34:16;16.50;61.30
9118;DHT22;4594;50.994;7.126;2024-02-14T11:36:44;16.50;62.20
9118;DHT22;4594;50.994;7.126;2024-02-14T11:39:13;16.50;62.00
9118;DHT22;4594;50.994;7.126;2024-02-14T11:41:39;16.50;61.10
9118;DHT22;4594;50.994;7.126;2024-02-14T11:44:07;17.30;63.30
9118;DHT22;4594;50.994;7.126;2024-02-14T11:46:35;16.50;62.30
9118;DHT22;4594;50.994;7.126;2024-02-14T11:49:03;16.60;62.80
9118;DHT22;4594;50.994;7.126;2024-02-14T11:51:30;16.60;62.40
9118;DHT22;4594;50.994;7.126;2024-02-14T11:53:58;16.60;62.50
9118;DHT22;4594;50.994;7.126;2024-02-14T11:56:38;16.60;62.70
9118;DHT22;4594;50.994;7.126;2024-02-14T11:59:05;16.70;62.90
9118;DHT22;4594;50.994;7.126;2024-02-14T12:01:34;16.70;62.60
9118;DHT22;4594;50.994;7.126;2024-02-14T12:04:02;16.70;62.10
9118;DHT22;4594;50.994;7.126;2024-02-14T12:06:31;16.80;62.00
9118;DHT22;4594;50.994;7.126;2024-02-14T12:09:04;16.80;61.80
9118;DHT22;4594;50.994;7.126;2024-02-14T12:11:37;16.80;61.70
9118;DHT22;4594;50.994;7.126;2024-02-14T12:14:07;16.90;60.00
9118;DHT22;4594;50.994;7.126;2024-02-14T12:16:35;16.80;59.70
9118;DHT22;4594;50.994;7.126;2024-02-14T12:19:05;16.80;60.80
9118;DHT22;4594;50.994;7.126;2024-02-14T12:21:37;16.80;60.30
9118;DHT22;4594;50.994;7.126;2024-02-14T12:24:08;16.70;60.40
9118;DHT22;4594;50.994;7.126;2024-02-14T12:26:36;16.70;59.40
9118;DHT22;4594;50.994;7.126;2024-02-14T12:29:03;16.70;60.60
9118;DHT22;4594;50.994;7.126;2024-02-14T12:31:30;16.80;60.40
9118;DHT22;4594;50.994;7.126;2024-02-14T12:33:57;16.60;59.90
9118;DHT22;4594;50.994;7.126;2024-02-14T12:36:26;16.60;59.60
9118;DHT22;4594;50.994;7.126;2024-02-14T12:38:53;16.50;59.50
9118;DHT22;4594;50.994;7.126;2024-02-14T12:41:19;16.40;59.60
9118;DHT22;4594;50.994;7.126;2024-02-14T12:43:45;16.50;59.70
9118;DHT22;4594;50.994;7.126;2024-02-14T12:46:11;16.50;59.70
9118;DHT22;4594;50.994;7.126;2024-02-14T12:48:36;16.40;59.60
9118;DHT22;4594;50.994;7.126;2024-02-14T12:51:02;16.40;59.90
9118;DHT22;4594;50.994;7.126;2024-02-14T12:53:28;16.40;60.10
9118;DHT22;4594;50.994;7.126;2024-02-14T12:55:54;16.30;60.30
9118;DHT22;4594;50.994;7.126;2024-02-14T12:58:19;16.30;60.40
9118;DHT22;4594;50.994;7.126;2024-02-14T13:00:45;16.30;60.20
9118;DHT22;4594;50.994;7.126;2024-02-14T13:03:13;16.30;60.20
9118;DHT22;4594;50.994;7.126;2024-02-14T13:05:39;16.30;60.20
9118;DHT22;4594;50.994;7.126;2024-02-14T13:08:06;16.30;59.90
9118;DHT22;4594;50.994;7.126;2024-02-14T13:10:32;16.30;60.20
9118;DHT22;4594;50.994;7.126;2024-02-14T13:12:58;16.30;60.30
9118;DHT22;4594;50.994;7.126;2024-02-14T13:15:23;16.30;60.40
9118;DHT22;4594;50.994;7.126;2024-02-14T13:17:49;16.30;60.40
9118;DHT22;4594;50.994;7.126;2024-02-14T13:20:15;16.30;60.30
9118;DHT22;4594;50.994;7.126;2024-02-14T13:22:41;16.30;60.10
9118;DHT22;4594;50.994;7.126;2024-02-14T13:25:08;16.30;60.10
9118;DHT22;4594;50.994;7.126;2024-02-14T13:27:34;16.30;60.10
9118;DHT22;4594;50.994;7.126;2024-02-14T13:30:04;16.20;60.10
9118;DHT22;4594;50.994;7.126;2024-02-14T13:32:30;16.20;59.30
9118;DHT22;4594;50.994;7.126;2024-02-14T13:34:55;16.20;60.00
9118;DHT22;4594;50.994;7.126;2024-02-14T13:37:22;16.20;60.20
9118;DHT22;4594;50.994;7.126;2024-02-14T13:39:48;16.20;60.20
9118;DHT22;4594;50.994;7.126;2024-02-14T13:42:14;16.20;60.00
9118;DHT22;4594;50.994;7.126;2024-02-14T13:44:40;16.80;60.70
9118;DHT22;4594;50.994;7.126;2024-02-14T13:47:05;16.20;60.20
9118;DHT22;4594;50.994;7.126;2024-02-14T13:49:32;16.20;60.30
9118;DHT22;4594;50.994;7.126;2024-02-14T13:51:57;16.20;60.40
9118;DHT22;4594;50.994;7.126;2024-02-14T13:54:23;16.20;60.30
9118;DHT22;4594;50.994;7.126;2024-02-14T13:56:50;16.20;60.20
9118;DHT22;4594;50.994;7.126;2024-02-14T13:59:16;16.20;60.10
9118;DHT22;4594;50.994;7.126;2024-02-14T14:01:42;16.20;60.00
9118;DHT22;4594;50.994;7.126;2024-02-14T14:04:08;16.10;60.20
9118;DHT22;4594;50.994;7.126;2024-02-14T14:06:34;16.10;60.00
9118;DHT22;4594;50.994;7.126;2024-02-14T14:09:00;16.10;60.10
9118;DHT22;4594;50.994;7.126;2024-02-14T14:11:28;16.00;59.70
9118;DHT22;4594;50.994;7.126;2024-02-14T14:13:54;15.90;59.30
9118;DHT22;4594;50.994;7.126;2024-02-14T14:16:19;15.90;59.30
9118;DHT22;4594;50.994;7.126;2024-02-14T14:18:48;15.90;59.40
9118;DHT22;4594;50.994;7.126;2024-02-14T14:21:14;15.80;59.40
9118;DHT22;4594;50.994;7.126;2024-02-14T14:23:40;15.80;59.50
9118;DHT22;4594;50.994;7.126;2024-02-14T14:26:06;15.70;59.50
9118;DHT22;4594;50.994;7.126;2024-02-14T14:28:32;15.60;59.60
9118;DHT22;4594;50.994;7.126;2024-02-14T14:30:57;15.50;59.60
9118;DHT22;4594;50.994;7.126;2024-02-14T14:33:25;15.60;60.00
9118;DHT22;4594;50.994;7.126;2024-02-14T14:35:51;15.60;60.10
9118;DHT22;4594;50.994;7.126;2024-02-14T14:38:20;15.40;60.00
9118;DHT22;4594;50.994;7.126;2024-02-14T14:40:47;15.30;60.20
9118;DHT22;4594;50.994;7.126;2024-02-14T14:43:16;15.30;60.50
9118;DHT22;4594;50.994;7.126;2024-02-14T14:45:44;15.20;60.10
9118;DHT22;4594;50.994;7.126;2024-02-14T14:48:10;15.20;60.80
9118;DHT22;4594;50.994;7.126;2024-02-14T14:50:36;15.10;60.90
9118;DHT22;4594;50.994;7.126;2024-02-14T14:53:02;15.00;61.00
9118;DHT22;4594;50.994;7.126;2024-02-14T14:55:49;15.10;61.50
9118;DHT22;4594;50.994;7.126;2024-02-14T14:58:17;14.90;60.30
9118;DHT22;4594;50.994;7.126;2024-02-14T15:00:43;14.80;61.80
9118;DHT22;4594;50.994;7.126;2024-02-14T15:03:09;14.80;62.10
9118;DHT22;4594;50.994;7.126;2024-02-14T15:05:37;14.70;62.30
9118;DHT22;4594;50.994;7.126;2024-02-14T15:08:04;14.80;62.80
9118;DHT22;4594;50.994;7.126;2024-02-14T15:10:34;14.60;63.00
9118;DHT22;4594;50.994;7.126;2024-02-14T15:13:00;14.60;63.10
9118;DHT22;4594;50.994;7.126;2024-02-14T15:15:26;14.50;63.30
9118;DHT22;4594;50.994;7.126;2024-02-14T15:17:52;14.50;63.70
9118;DHT22;4594;50.994;7.126;2024-02-14T15:20:17;14.40;63.80
9118;DHT22;4594;50.994;7.126;2024-02-14T15:22:43;14.40;64.20
9118;DHT22;4594;50.994;7.126;2024-02-14T15:25:09;14.40;64.30
9118;DHT22;4594;50.994;7.126;2024-02-14T15:27:34;14.30;64.50
9118;DHT22;4594;50.994;7.126;2024-02-14T15:30:06;14.30;64.80
9118;DHT22;4594;50.994;7.126;2024-02-14T15:32:51;14.30;65.10
9118;DHT22;4594;50.994;7.126;2024-02-14T15:35:35;14.20;65.00
9118;DHT22;4594;50.994;7.126;2024-02-14T15:38:01;14.20;65.20
9118;DHT22;4594;50.994;7.126;2024-02-14T15:40:27;14.20;65.40
9118;DHT22;4594;50.994;7.126;2024-02-14T15:42:53;14.10;65.60
9118;DHT22;4594;50.994;7.126;2024-02-14T15:45:19;14.10;65.80
9118;DHT22;4594;50.994;7.126;2024-02-14T15:47:45;14.10;65.80
9118;DHT22;4594;50.994;7.126;2024-02-14T15:50:12;14.10;65.80
9118;DHT22;4594;50.994;7.126;2024-02-14T15:52:38;14.00;65.70
9118;DHT22;4594;50.994;7.126;2024-02-14T15:55:05;14.00;65.80
9118;DHT22;4594;50.994;7.126;2024-02-14T15:57:35;14.00;66.30
9118;DHT22;4594;50.994;7.126;2024-02-14T16:00:02;14.00;66.30